sensor_id;sensor_type;location;lat;lon;timestamp;P1;durP1;ratioP1;P2;durP2;ratioP2
74945;SDS011;63509;45.250;38.102;2023-05-15T00:02:05;2.63;;;2.20;;
74945;SDS011;63509;45.250;38.102;2023-05-15T00:04:31;1.05;;;0.75;;
74945;SDS011;63509;45.250;38.102;2023-05-15T00:06:57;0.65;;;0.63;;
74945;SDS011;63509;45.250;38.102;2023-05-15T00:09:23;1.05;;;0.75;;
74945;SDS011;63509;45.250;38.102;2023-05-15T00:11:50;0.30;;;0.15;;
74945;SDS011;63509;45.250;38.102;2023-05-15T00:14:31;2.40;;;1.10;;
74945;SDS011;63509;45.250;38.102;2023-05-15T00:16:57;1.98;;;1.30;;
74945;SDS011;63509;45.250;38.102;2023-05-15T00:19:23;5.82;;;2.03;;
74945;SDS011;63509;45.250;38.102;2023-05-15T00:21:50;0.93;;;0.88;;
74945;SDS011;63509;45.250;38.102;2023-05-15T00:24:16;0.73;;;0.45;;
74945;SDS011;63509;45.250;38.102;2023-05-15T00:26:42;1.52;;;1.42;;
74945;SDS011;63509;45.250;38.102;2023-05-15T00:29:09;0.93;;;0.55;;
74945;SDS011;63509;45.250;38.102;2023-05-15T00:31:37;0.60;;;0.38;;
74945;SDS011;63509;45.250;38.102;2023-05-15T00:34:03;0.57;;;0.38;;
74945;SDS011;63509;45.250;38.102;2023-05-15T00:36:29;1.85;;;1.05;;
74945;SDS011;63509;45.250;38.102;2023-05-15T00:38:55;0.90;;;0.57;;
74945;SDS011;63509;45.250;38.102;2023-05-15T00:41:22;2.55;;;1.10;;
74945;SDS011;63509;45.250;38.102;2023-05-15T00:43:51;3.42;;;2.55;;
74945;SDS011;63509;45.250;38.102;2023-05-15T00:46:19;9.77;;;4.47;;
74945;SDS011;63509;45.250;38.102;2023-05-15T00:48:47;2.55;;;2.13;;
74945;SDS011;63509;45.250;38.102;2023-05-15T00:51:16;3.25;;;1.08;;
74945;SDS011;63509;45.250;38.102;2023-05-15T00:53:42;4.10;;;1.65;;
74945;SDS011;63509;45.250;38.102;2023-05-15T00:56:09;2.10;;;1.20;;
74945;SDS011;63509;45.250;38.102;2023-05-15T00:58:36;4.88;;;1.40;;
74945;SDS011;63509;45.250;38.102;2023-05-15T01:01:03;1.02;;;0.65;;
74945;SDS011;63509;45.250;38.102;2023-05-15T01:03:29;3.60;;;1.95;;
74945;SDS011;63509;45.250;38.102;2023-05-15T01:05:58;10.95;;;1.25;;
74945;SDS011;63509;45.250;38.102;2023-05-15T01:08:26;2.97;;;2.33;;
74945;SDS011;63509;45.250;38.102;2023-05-15T01:11:13;1.13;;;0.77;;
74945;SDS011;63509;45.250;38.102;2023-05-15T01:13:41;4.18;;;2.97;;
74945;SDS011;63509;45.250;38.102;2023-05-15T01:16:08;7.63;;;2.33;;
74945;SDS011;63509;45.250;38.102;2023-05-15T01:18:34;1.33;;;1.20;;
74945;SDS011;63509;45.250;38.102;2023-05-15T01:23:41;2.03;;;1.42;;
74945;SDS011;63509;45.250;38.102;2023-05-15T01:29:18;2.85;;;0.95;;
74945;SDS011;63509;45.250;38.102;2023-05-15T01:31:53;2.00;;;1.80;;
74945;SDS011;63509;45.250;38.102;2023-05-15T01:34:36;0.98;;;0.68;;
74945;SDS011;63509;45.250;38.102;2023-05-15T01:37:08;1.33;;;1.08;;
74945;SDS011;63509;45.250;38.102;2023-05-15T01:39:35;0.50;;;0.47;;
74945;SDS011;63509;45.250;38.102;2023-05-15T01:44:42;0.32;;;0.28;;
74945;SDS011;63509;45.250;38.102;2023-05-15T01:47:14;4.85;;;3.35;;
74945;SDS011;63509;45.250;38.102;2023-05-15T01:49:45;0.95;;;0.75;;
74945;SDS011;63509;45.250;38.102;2023-05-15T01:52:16;1.27;;;1.10;;
74945;SDS011;63509;45.250;38.102;2023-05-15T01:54:47;1.00;;;0.75;;
74945;SDS011;63509;45.250;38.102;2023-05-15T01:57:14;4.65;;;1.55;;
74945;SDS011;63509;45.250;38.102;2023-05-15T01:59:41;1.20;;;0.85;;
74945;SDS011;63509;45.250;38.102;2023-05-15T02:02:08;2.85;;;1.33;;
74945;SDS011;63509;45.250;38.102;2023-05-15T02:04:36;3.53;;;1.85;;
74945;SDS011;63509;45.250;38.102;2023-05-15T02:07:03;6.03;;;1.75;;
74945;SDS011;63509;45.250;38.102;2023-05-15T02:09:30;1.30;;;1.20;;
74945;SDS011;63509;45.250;38.102;2023-05-15T02:11:59;0.35;;;0.25;;
74945;SDS011;63509;45.250;38.102;2023-05-15T02:14:27;0.50;;;0.43;;
74945;SDS011;63509;45.250;38.102;2023-05-15T02:16:54;1.10;;;0.95;;
74945;SDS011;63509;45.250;38.102;2023-05-15T02:19:20;3.35;;;1.20;;
74945;SDS011;63509;45.250;38.102;2023-05-15T02:21:47;0.85;;;0.50;;
74945;SDS011;63509;45.250;38.102;2023-05-15T02:24:13;0.45;;;0.35;;
74945;SDS011;63509;45.250;38.102;2023-05-15T02:32:30;3.20;;;1.60;;
74945;SDS011;63509;45.250;38.102;2023-05-15T02:37:52;0.30;;;0.20;;
74945;SDS011;63509;45.250;38.102;2023-05-15T02:40:22;0.45;;;0.28;;
74945;SDS011;63509;45.250;38.102;2023-05-15T02:42:51;0.98;;;0.63;;
74945;SDS011;63509;45.250;38.102;2023-05-15T02:45:19;3.95;;;2.40;;
74945;SDS011;63509;45.250;38.102;2023-05-15T02:47:46;0.70;;;0.63;;
74945;SDS011;63509;45.250;38.102;2023-05-15T02:50:14;0.73;;;0.52;;
74945;SDS011;63509;45.250;38.102;2023-05-15T02:52:41;1.98;;;1.33;;
74945;SDS011;63509;45.250;38.102;2023-05-15T02:55:08;1.10;;;1.00;;
74945;SDS011;63509;45.250;38.102;2023-05-15T02:57:34;1.15;;;0.85;;
74945;SDS011;63509;45.250;38.102;2023-05-15T03:00:00;0.55;;;0.55;;
74945;SDS011;63509;45.250;38.102;2023-05-15T03:02:29;0.90;;;0.55;;
74945;SDS011;63509;45.250;38.102;2023-05-15T03:04:55;0.25;;;0.20;;
74945;SDS011;63509;45.250;38.102;2023-05-15T03:07:21;1.65;;;0.60;;
74945;SDS011;63509;45.250;38.102;2023-05-15T03:09:47;1.42;;;1.30;;
74945;SDS011;63509;45.250;38.102;2023-05-15T03:12:14;0.73;;;0.68;;
74945;SDS011;63509;45.250;38.102;2023-05-15T03:14:40;0.13;;;0.10;;
74945;SDS011;63509;45.250;38.102;2023-05-15T03:17:06;1.67;;;0.65;;
74945;SDS011;63509;45.250;38.102;2023-05-15T03:19:32;0.20;;;0.17;;
74945;SDS011;63509;45.250;38.102;2023-05-15T03:21:58;0.55;;;0.40;;
74945;SDS011;63509;45.250;38.102;2023-05-15T03:24:24;1.95;;;1.45;;
74945;SDS011;63509;45.250;38.102;2023-05-15T03:26:50;4.22;;;1.48;;
74945;SDS011;63509;45.250;38.102;2023-05-15T03:29:17;4.03;;;0.90;;
74945;SDS011;63509;45.250;38.102;2023-05-15T03:31:43;0.65;;;0.40;;
74945;SDS011;63509;45.250;38.102;2023-05-15T03:34:09;13.77;;;3.60;;
74945;SDS011;63509;45.250;38.102;2023-05-15T03:36:35;1.35;;;0.73;;
74945;SDS011;63509;45.250;38.102;2023-05-15T03:39:01;6.22;;;2.35;;
74945;SDS011;63509;45.250;38.102;2023-05-15T03:41:27;1.13;;;0.85;;
74945;SDS011;63509;45.250;38.102;2023-05-15T03:43:53;5.18;;;1.15;;
74945;SDS011;63509;45.250;38.102;2023-05-15T03:46:19;3.67;;;1.05;;
74945;SDS011;63509;45.250;38.102;2023-05-15T03:48:46;0.47;;;0.47;;
74945;SDS011;63509;45.250;38.102;2023-05-15T03:51:12;1.83;;;0.88;;
74945;SDS011;63509;45.250;38.102;2023-05-15T03:53:38;1.08;;;0.77;;
74945;SDS011;63509;45.250;38.102;2023-05-15T03:56:04;0.28;;;0.20;;
74945;SDS011;63509;45.250;38.102;2023-05-15T03:58:30;1.48;;;0.73;;
74945;SDS011;63509;45.250;38.102;2023-05-15T04:00:57;2.03;;;1.20;;
74945;SDS011;63509;45.250;38.102;2023-05-15T04:03:23;3.33;;;0.88;;
74945;SDS011;63509;45.250;38.102;2023-05-15T04:05:49;1.75;;;1.30;;
74945;SDS011;63509;45.250;38.102;2023-05-15T04:08:16;2.45;;;2.25;;
74945;SDS011;63509;45.250;38.102;2023-05-15T04:10:43;1.58;;;1.15;;
74945;SDS011;63509;45.250;38.102;2023-05-15T04:13:09;1.35;;;1.23;;
74945;SDS011;63509;45.250;38.102;2023-05-15T04:15:35;1.17;;;1.08;;
74945;SDS011;63509;45.250;38.102;2023-05-15T04:18:01;1.70;;;1.23;;
74945;SDS011;63509;45.250;38.102;2023-05-15T04:20:27;1.45;;;1.02;;
74945;SDS011;63509;45.250;38.102;2023-05-15T04:22:54;1.85;;;1.30;;
74945;SDS011;63509;45.250;38.102;2023-05-15T04:25:20;1.60;;;1.40;;
74945;SDS011;63509;45.250;38.102;2023-05-15T04:27:46;3.60;;;1.55;;
74945;SDS011;63509;45.250;38.102;2023-05-15T04:30:13;2.45;;;1.20;;
74945;SDS011;63509;45.250;38.102;2023-05-15T04:32:40;1.13;;;0.77;;
74945;SDS011;63509;45.250;38.102;2023-05-15T04:35:07;3.10;;;1.08;;
74945;SDS011;63509;45.250;38.102;2023-05-15T04:37:35;1.48;;;0.82;;
74945;SDS011;63509;45.250;38.102;2023-05-15T04:40:01;2.15;;;1.63;;
74945;SDS011;63509;45.250;38.102;2023-05-15T04:42:28;1.48;;;1.17;;
74945;SDS011;63509;45.250;38.102;2023-05-15T04:44:54;1.52;;;1.27;;
74945;SDS011;63509;45.250;38.102;2023-05-15T04:47:21;1.95;;;1.27;;
74945;SDS011;63509;45.250;38.102;2023-05-15T04:49:47;3.53;;;1.38;;
74945;SDS011;63509;45.250;38.102;2023-05-15T04:52:14;2.13;;;1.27;;
74945;SDS011;63509;45.250;38.102;2023-05-15T04:54:41;2.95;;;1.90;;
74945;SDS011;63509;45.250;38.102;2023-05-15T04:57:07;5.28;;;2.53;;
74945;SDS011;63509;45.250;38.102;2023-05-15T04:59:33;2.35;;;1.30;;
74945;SDS011;63509;45.250;38.102;2023-05-15T05:02:00;2.55;;;2.05;;
74945;SDS011;63509;45.250;38.102;2023-05-15T05:04:27;1.08;;;0.82;;
74945;SDS011;63509;45.250;38.102;2023-05-15T05:06:53;2.47;;;1.58;;
74945;SDS011;63509;45.250;38.102;2023-05-15T05:09:19;4.38;;;1.95;;
74945;SDS011;63509;45.250;38.102;2023-05-15T05:11:45;2.55;;;1.38;;
74945;SDS011;63509;45.250;38.102;2023-05-15T05:14:13;1.90;;;1.05;;
74945;SDS011;63509;45.250;38.102;2023-05-15T05:16:40;1.25;;;0.70;;
74945;SDS011;63509;45.250;38.102;2023-05-15T05:19:09;3.67;;;1.35;;
74945;SDS011;63509;45.250;38.102;2023-05-15T05:21:35;1.73;;;0.90;;
74945;SDS011;63509;45.250;38.102;2023-05-15T05:24:01;1.90;;;1.02;;
74945;SDS011;63509;45.250;38.102;2023-05-15T05:26:27;3.10;;;1.63;;
74945;SDS011;63509;45.250;38.102;2023-05-15T05:28:53;4.40;;;1.27;;
74945;SDS011;63509;45.250;38.102;2023-05-15T05:31:20;11.88;;;1.13;;
74945;SDS011;63509;45.250;38.102;2023-05-15T05:33:46;1.88;;;1.00;;
74945;SDS011;63509;45.250;38.102;2023-05-15T05:36:14;5.63;;;2.30;;
74945;SDS011;63509;45.250;38.102;2023-05-15T05:38:40;2.13;;;1.15;;
74945;SDS011;63509;45.250;38.102;2023-05-15T05:41:06;2.00;;;1.08;;
74945;SDS011;63509;45.250;38.102;2023-05-15T05:43:33;0.98;;;0.82;;
74945;SDS011;63509;45.250;38.102;2023-05-15T05:46:00;3.60;;;1.35;;
74945;SDS011;63509;45.250;38.102;2023-05-15T05:48:26;2.13;;;1.17;;
74945;SDS011;63509;45.250;38.102;2023-05-15T05:50:53;8.85;;;0.95;;
74945;SDS011;63509;45.250;38.102;2023-05-15T05:53:19;1.40;;;0.93;;
74945;SDS011;63509;45.250;38.102;2023-05-15T05:55:46;1.98;;;1.05;;
74945;SDS011;63509;45.250;38.102;2023-05-15T05:58:13;5.55;;;1.33;;
74945;SDS011;63509;45.250;38.102;2023-05-15T06:00:41;3.47;;;1.25;;
74945;SDS011;63509;45.250;38.102;2023-05-15T06:03:08;3.92;;;2.28;;
74945;SDS011;63509;45.250;38.102;2023-05-15T06:05:34;10.98;;;1.35;;
74945;SDS011;63509;45.250;38.102;2023-05-15T06:08:00;6.43;;;1.48;;
74945;SDS011;63509;45.250;38.102;2023-05-15T06:10:28;19.95;;;1.80;;
74945;SDS011;63509;45.250;38.102;2023-05-15T06:12:55;5.18;;;0.98;;
74945;SDS011;63509;45.250;38.102;2023-05-15T06:15:21;2.38;;;1.33;;
74945;SDS011;63509;45.250;38.102;2023-05-15T06:17:48;4.93;;;1.67;;
74945;SDS011;63509;45.250;38.102;2023-05-15T06:20:14;2.15;;;0.77;;
74945;SDS011;63509;45.250;38.102;2023-05-15T06:22:40;3.05;;;1.13;;
74945;SDS011;63509;45.250;38.102;2023-05-15T06:25:06;3.08;;;1.60;;
74945;SDS011;63509;45.250;38.102;2023-05-15T06:27:38;4.35;;;1.65;;
74945;SDS011;63509;45.250;38.102;2023-05-15T06:30:05;2.75;;;1.50;;
74945;SDS011;63509;45.250;38.102;2023-05-15T06:32:33;3.28;;;1.63;;
74945;SDS011;63509;45.250;38.102;2023-05-15T06:34:59;6.25;;;1.98;;
74945;SDS011;63509;45.250;38.102;2023-05-15T06:37:25;8.45;;;1.33;;
74945;SDS011;63509;45.250;38.102;2023-05-15T06:39:51;4.10;;;2.00;;
74945;SDS011;63509;45.250;38.102;2023-05-15T06:42:17;4.90;;;1.30;;
74945;SDS011;63509;45.250;38.102;2023-05-15T06:44:44;2.25;;;0.85;;
74945;SDS011;63509;45.250;38.102;2023-05-15T06:47:12;4.55;;;1.52;;
74945;SDS011;63509;45.250;38.102;2023-05-15T06:49:38;1.95;;;1.10;;
74945;SDS011;63509;45.250;38.102;2023-05-15T06:52:04;2.42;;;1.05;;
74945;SDS011;63509;45.250;38.102;2023-05-15T06:54:31;4.15;;;1.50;;
74945;SDS011;63509;45.250;38.102;2023-05-15T06:56:57;6.45;;;1.85;;
74945;SDS011;63509;45.250;38.102;2023-05-15T06:59:23;3.97;;;1.67;;
74945;SDS011;63509;45.250;38.102;2023-05-15T07:01:49;2.30;;;1.45;;
74945;SDS011;63509;45.250;38.102;2023-05-15T07:04:15;2.80;;;1.70;;
74945;SDS011;63509;45.250;38.102;2023-05-15T07:06:41;3.17;;;1.33;;
74945;SDS011;63509;45.250;38.102;2023-05-15T07:09:08;5.45;;;1.67;;
74945;SDS011;63509;45.250;38.102;2023-05-15T07:11:34;2.50;;;1.17;;
74945;SDS011;63509;45.250;38.102;2023-05-15T07:14:03;13.52;;;1.95;;
74945;SDS011;63509;45.250;38.102;2023-05-15T07:16:30;2.13;;;1.10;;
74945;SDS011;63509;45.250;38.102;2023-05-15T07:18:57;2.35;;;1.23;;
74945;SDS011;63509;45.250;38.102;2023-05-15T07:21:23;5.40;;;1.58;;
74945;SDS011;63509;45.250;38.102;2023-05-15T07:23:49;2.25;;;1.10;;
74945;SDS011;63509;45.250;38.102;2023-05-15T07:26:15;4.75;;;1.42;;
74945;SDS011;63509;45.250;38.102;2023-05-15T07:28:41;4.15;;;1.40;;
74945;SDS011;63509;45.250;38.102;2023-05-15T07:31:08;3.20;;;1.30;;
74945;SDS011;63509;45.250;38.102;2023-05-15T07:33:34;4.93;;;1.88;;
74945;SDS011;63509;45.250;38.102;2023-05-15T07:36:01;2.00;;;0.82;;
74945;SDS011;63509;45.250;38.102;2023-05-15T07:38:26;2.53;;;1.35;;
74945;SDS011;63509;45.250;38.102;2023-05-15T07:40:53;2.67;;;1.52;;
74945;SDS011;63509;45.250;38.102;2023-05-15T07:43:19;2.72;;;1.38;;
74945;SDS011;63509;45.250;38.102;2023-05-15T07:45:45;2.72;;;1.25;;
74945;SDS011;63509;45.250;38.102;2023-05-15T07:48:15;2.17;;;0.88;;
74945;SDS011;63509;45.250;38.102;2023-05-15T07:50:43;7.20;;;1.45;;
74945;SDS011;63509;45.250;38.102;2023-05-15T07:53:10;2.72;;;1.13;;
74945;SDS011;63509;45.250;38.102;2023-05-15T07:55:37;2.50;;;1.33;;
74945;SDS011;63509;45.250;38.102;2023-05-15T07:58:05;19.80;;;1.95;;
74945;SDS011;63509;45.250;38.102;2023-05-15T08:00:32;2.47;;;1.10;;
74945;SDS011;63509;45.250;38.102;2023-05-15T08:02:58;2.60;;;1.30;;
74945;SDS011;63509;45.250;38.102;2023-05-15T08:05:25;2.03;;;0.75;;
74945;SDS011;63509;45.250;38.102;2023-05-15T08:07:51;3.08;;;0.93;;
74945;SDS011;63509;45.250;38.102;2023-05-15T08:10:17;2.97;;;1.08;;
74945;SDS011;63509;45.250;38.102;2023-05-15T08:12:43;2.67;;;1.10;;
74945;SDS011;63509;45.250;38.102;2023-05-15T08:15:11;3.50;;;1.08;;
74945;SDS011;63509;45.250;38.102;2023-05-15T08:17:37;3.60;;;0.70;;
74945;SDS011;63509;45.250;38.102;2023-05-15T08:20:04;3.35;;;0.88;;
74945;SDS011;63509;45.250;38.102;2023-05-15T08:22:30;1.98;;;0.90;;
74945;SDS011;63509;45.250;38.102;2023-05-15T08:24:57;2.25;;;0.68;;
74945;SDS011;63509;45.250;38.102;2023-05-15T08:27:24;4.18;;;1.73;;
74945;SDS011;63509;45.250;38.102;2023-05-15T08:29:51;8.85;;;1.25;;
74945;SDS011;63509;45.250;38.102;2023-05-15T08:34:45;2.10;;;0.77;;
74945;SDS011;63509;45.250;38.102;2023-05-15T08:37:11;15.90;;;2.28;;
74945;SDS011;63509;45.250;38.102;2023-05-15T08:39:37;11.23;;;1.27;;
74945;SDS011;63509;45.250;38.102;2023-05-15T08:44:33;5.32;;;1.27;;
74945;SDS011;63509;45.250;38.102;2023-05-15T08:47:00;4.68;;;1.00;;
74945;SDS011;63509;45.250;38.102;2023-05-15T08:52:17;13.82;;;2.20;;
74945;SDS011;63509;45.250;38.102;2023-05-15T08:54:43;11.68;;;1.45;;
74945;SDS011;63509;45.250;38.102;2023-05-15T08:57:12;2.35;;;1.25;;
74945;SDS011;63509;45.250;38.102;2023-05-15T08:59:40;2.60;;;1.08;;
74945;SDS011;63509;45.250;38.102;2023-05-15T09:02:06;2.50;;;0.90;;
74945;SDS011;63509;45.250;38.102;2023-05-15T09:04:32;4.22;;;1.30;;
74945;SDS011;63509;45.250;38.102;2023-05-15T09:06:59;3.15;;;0.85;;
74945;SDS011;63509;45.250;38.102;2023-05-15T09:09:26;3.17;;;0.80;;
74945;SDS011;63509;45.250;38.102;2023-05-15T09:11:54;2.03;;;0.80;;
74945;SDS011;63509;45.250;38.102;2023-05-15T09:14:20;2.45;;;0.80;;
74945;SDS011;63509;45.250;38.102;2023-05-15T09:16:50;3.15;;;0.90;;
74945;SDS011;63509;45.250;38.102;2023-05-15T09:19:18;3.33;;;0.75;;
74945;SDS011;63509;45.250;38.102;2023-05-15T09:21:45;6.43;;;1.25;;
74945;SDS011;63509;45.250;38.102;2023-05-15T09:24:22;5.28;;;0.80;;
74945;SDS011;63509;45.250;38.102;2023-05-15T09:27:00;1.63;;;0.65;;
74945;SDS011;63509;45.250;38.102;2023-05-15T09:29:29;5.00;;;0.90;;
74945;SDS011;63509;45.250;38.102;2023-05-15T09:31:56;2.58;;;1.20;;
74945;SDS011;63509;45.250;38.102;2023-05-15T09:34:30;2.67;;;1.17;;
74945;SDS011;63509;45.250;38.102;2023-05-15T09:36:57;3.63;;;1.13;;
74945;SDS011;63509;45.250;38.102;2023-05-15T09:39:24;6.88;;;1.10;;
74945;SDS011;63509;45.250;38.102;2023-05-15T09:41:51;3.05;;;1.38;;
74945;SDS011;63509;45.250;38.102;2023-05-15T09:44:19;2.22;;;1.00;;
74945;SDS011;63509;45.250;38.102;2023-05-15T09:46:49;6.57;;;1.17;;
74945;SDS011;63509;45.250;38.102;2023-05-15T09:49:16;5.13;;;1.10;;
74945;SDS011;63509;45.250;38.102;2023-05-15T09:51:46;1.75;;;0.80;;
74945;SDS011;63509;45.250;38.102;2023-05-15T09:54:13;3.67;;;1.30;;
74945;SDS011;63509;45.250;38.102;2023-05-15T09:56:44;3.40;;;1.10;;
74945;SDS011;63509;45.250;38.102;2023-05-15T09:59:12;2.58;;;1.20;;
74945;SDS011;63509;45.250;38.102;2023-05-15T10:01:43;4.43;;;1.05;;
74945;SDS011;63509;45.250;38.102;2023-05-15T10:04:10;1.95;;;0.77;;
74945;SDS011;63509;45.250;38.102;2023-05-15T10:06:39;2.00;;;0.82;;
74945;SDS011;63509;45.250;38.102;2023-05-15T10:09:15;4.07;;;0.98;;
74945;SDS011;63509;45.250;38.102;2023-05-15T10:11:42;3.03;;;1.23;;
74945;SDS011;63509;45.250;38.102;2023-05-15T10:14:10;1.58;;;0.70;;
74945;SDS011;63509;45.250;38.102;2023-05-15T10:16:38;2.10;;;0.73;;
74945;SDS011;63509;45.250;38.102;2023-05-15T10:19:06;2.30;;;1.00;;
74945;SDS011;63509;45.250;38.102;2023-05-15T10:21:34;1.67;;;0.70;;
74945;SDS011;63509;45.250;38.102;2023-05-15T10:24:02;2.50;;;1.00;;
74945;SDS011;63509;45.250;38.102;2023-05-15T10:26:50;3.20;;;1.02;;
74945;SDS011;63509;45.250;38.102;2023-05-15T10:31:43;2.17;;;1.10;;
74945;SDS011;63509;45.250;38.102;2023-05-15T10:34:10;4.90;;;1.20;;
74945;SDS011;63509;45.250;38.102;2023-05-15T10:36:37;1.80;;;0.77;;
74945;SDS011;63509;45.250;38.102;2023-05-15T10:39:04;6.70;;;0.88;;
74945;SDS011;63509;45.250;38.102;2023-05-15T10:41:32;4.75;;;1.00;;
74945;SDS011;63509;45.250;38.102;2023-05-15T10:44:01;5.43;;;1.05;;
74945;SDS011;63509;45.250;38.102;2023-05-15T10:46:27;3.47;;;1.15;;
74945;SDS011;63509;45.250;38.102;2023-05-15T10:48:55;2.70;;;0.93;;
74945;SDS011;63509;45.250;38.102;2023-05-15T10:51:26;5.00;;;1.55;;
74945;SDS011;63509;45.250;38.102;2023-05-15T10:53:58;4.05;;;1.15;;
74945;SDS011;63509;45.250;38.102;2023-05-15T10:58:54;5.90;;;1.17;;
74945;SDS011;63509;45.250;38.102;2023-05-15T11:01:25;2.05;;;0.80;;
74945;SDS011;63509;45.250;38.102;2023-05-15T11:06:34;3.20;;;0.90;;
74945;SDS011;63509;45.250;38.102;2023-05-15T11:14:22;1.50;;;0.73;;
74945;SDS011;63509;45.250;38.102;2023-05-15T11:19:22;1.73;;;0.80;;
74945;SDS011;63509;45.250;38.102;2023-05-15T11:21:58;2.75;;;1.02;;
74945;SDS011;63509;45.250;38.102;2023-05-15T11:24:50;2.40;;;1.10;;
74945;SDS011;63509;45.250;38.102;2023-05-15T11:27:21;1.83;;;0.80;;
74945;SDS011;63509;45.250;38.102;2023-05-15T11:30:02;6.13;;;0.95;;
74945;SDS011;63509;45.250;38.102;2023-05-15T11:37:58;2.45;;;0.68;;
74945;SDS011;63509;45.250;38.102;2023-05-15T11:43:15;1.95;;;0.80;;
74945;SDS011;63509;45.250;38.102;2023-05-15T11:51:01;5.20;;;1.63;;
74945;SDS011;63509;45.250;38.102;2023-05-15T11:53:29;2.25;;;0.80;;
74945;SDS011;63509;45.250;38.102;2023-05-15T11:55:56;4.15;;;1.40;;
74945;SDS011;63509;45.250;38.102;2023-05-15T11:58:23;2.00;;;1.10;;
74945;SDS011;63509;45.250;38.102;2023-05-15T12:03:24;5.72;;;0.90;;
74945;SDS011;63509;45.250;38.102;2023-05-15T12:08:29;0.90;;;0.47;;
74945;SDS011;63509;45.250;38.102;2023-05-15T12:11:02;3.03;;;0.82;;
74945;SDS011;63509;45.250;38.102;2023-05-15T12:13:29;1.98;;;0.88;;
74945;SDS011;63509;45.250;38.102;2023-05-15T12:15:57;4.15;;;1.10;;
74945;SDS011;63509;45.250;38.102;2023-05-15T12:18:23;3.05;;;1.10;;
74945;SDS011;63509;45.250;38.102;2023-05-15T12:20:50;3.53;;;0.70;;
74945;SDS011;63509;45.250;38.102;2023-05-15T12:23:19;7.65;;;0.88;;
74945;SDS011;63509;45.250;38.102;2023-05-15T12:25:47;1.83;;;0.80;;
74945;SDS011;63509;45.250;38.102;2023-05-15T12:28:15;10.45;;;1.25;;
74945;SDS011;63509;45.250;38.102;2023-05-15T12:30:41;5.22;;;0.93;;
74945;SDS011;63509;45.250;38.102;2023-05-15T12:33:08;2.25;;;0.88;;
74945;SDS011;63509;45.250;38.102;2023-05-15T12:35:35;2.42;;;1.00;;
74945;SDS011;63509;45.250;38.102;2023-05-15T12:38:06;2.50;;;0.80;;
74945;SDS011;63509;45.250;38.102;2023-05-15T12:40:33;4.32;;;1.15;;
74945;SDS011;63509;45.250;38.102;2023-05-15T12:43:06;3.45;;;1.38;;
74945;SDS011;63509;45.250;38.102;2023-05-15T12:45:34;3.40;;;1.30;;
74945;SDS011;63509;45.250;38.102;2023-05-15T12:48:03;6.43;;;1.30;;
74945;SDS011;63509;45.250;38.102;2023-05-15T12:50:33;5.72;;;1.05;;
74945;SDS011;63509;45.250;38.102;2023-05-15T12:53:01;7.38;;;1.25;;
74945;SDS011;63509;45.250;38.102;2023-05-15T12:55:29;2.35;;;1.08;;
74945;SDS011;63509;45.250;38.102;2023-05-15T12:57:57;2.80;;;1.17;;
74945;SDS011;63509;45.250;38.102;2023-05-15T13:00:30;3.75;;;1.75;;
74945;SDS011;63509;45.250;38.102;2023-05-15T13:02:58;1.73;;;0.80;;
74945;SDS011;63509;45.250;38.102;2023-05-15T13:05:24;3.40;;;1.20;;
74945;SDS011;63509;45.250;38.102;2023-05-15T13:07:51;2.40;;;0.90;;
74945;SDS011;63509;45.250;38.102;2023-05-15T13:10:21;2.63;;;1.08;;
74945;SDS011;63509;45.250;38.102;2023-05-15T13:12:50;2.90;;;1.10;;
74945;SDS011;63509;45.250;38.102;2023-05-15T13:15:28;7.47;;;1.20;;
74945;SDS011;63509;45.250;38.102;2023-05-15T13:18:06;1.98;;;1.00;;
74945;SDS011;63509;45.250;38.102;2023-05-15T13:23:04;8.80;;;1.23;;
74945;SDS011;63509;45.250;38.102;2023-05-15T13:25:30;2.92;;;0.70;;
74945;SDS011;63509;45.250;38.102;2023-05-15T13:27:57;3.38;;;1.27;;
74945;SDS011;63509;45.250;38.102;2023-05-15T13:30:25;3.20;;;0.85;;
74945;SDS011;63509;45.250;38.102;2023-05-15T13:32:53;4.85;;;1.27;;
74945;SDS011;63509;45.250;38.102;2023-05-15T13:35:19;2.88;;;1.23;;
74945;SDS011;63509;45.250;38.102;2023-05-15T13:37:46;3.95;;;1.38;;
74945;SDS011;63509;45.250;38.102;2023-05-15T13:40:12;2.03;;;1.02;;
74945;SDS011;63509;45.250;38.102;2023-05-15T13:42:39;7.97;;;1.42;;
74945;SDS011;63509;45.250;38.102;2023-05-15T13:45:08;2.30;;;1.10;;
74945;SDS011;63509;45.250;38.102;2023-05-15T13:47:39;2.28;;;1.00;;
74945;SDS011;63509;45.250;38.102;2023-05-15T13:50:06;2.75;;;1.25;;
74945;SDS011;63509;45.250;38.102;2023-05-15T13:52:33;2.33;;;0.90;;
74945;SDS011;63509;45.250;38.102;2023-05-15T13:55:00;2.28;;;0.90;;
74945;SDS011;63509;45.250;38.102;2023-05-15T13:57:26;1.67;;;0.82;;
74945;SDS011;63509;45.250;38.102;2023-05-15T13:59:53;6.88;;;1.13;;
74945;SDS011;63509;45.250;38.102;2023-05-15T14:02:20;2.35;;;1.15;;
74945;SDS011;63509;45.250;38.102;2023-05-15T14:04:48;2.00;;;1.00;;
74945;SDS011;63509;45.250;38.102;2023-05-15T14:07:13;2.58;;;1.20;;
74945;SDS011;63509;45.250;38.102;2023-05-15T14:09:40;3.15;;;1.00;;
74945;SDS011;63509;45.250;38.102;2023-05-15T14:12:06;4.60;;;1.38;;
74945;SDS011;63509;45.250;38.102;2023-05-15T14:17:00;2.35;;;0.93;;
74945;SDS011;63509;45.250;38.102;2023-05-15T14:19:26;8.40;;;0.95;;
74945;SDS011;63509;45.250;38.102;2023-05-15T14:21:52;12.63;;;2.15;;
74945;SDS011;63509;45.250;38.102;2023-05-15T14:24:19;2.17;;;0.73;;
74945;SDS011;63509;45.250;38.102;2023-05-15T14:26:45;3.78;;;1.20;;
74945;SDS011;63509;45.250;38.102;2023-05-15T14:29:11;2.65;;;1.52;;
74945;SDS011;63509;45.250;38.102;2023-05-15T14:31:37;1.45;;;0.88;;
74945;SDS011;63509;45.250;38.102;2023-05-15T14:34:03;2.95;;;1.40;;
74945;SDS011;63509;45.250;38.102;2023-05-15T14:36:30;1.83;;;0.95;;
74945;SDS011;63509;45.250;38.102;2023-05-15T14:38:57;5.00;;;1.90;;
74945;SDS011;63509;45.250;38.102;2023-05-15T14:41:23;1.88;;;0.93;;
74945;SDS011;63509;45.250;38.102;2023-05-15T14:43:49;4.97;;;1.83;;
74945;SDS011;63509;45.250;38.102;2023-05-15T14:46:15;4.82;;;1.77;;
74945;SDS011;63509;45.250;38.102;2023-05-15T14:48:41;1.20;;;0.70;;
74945;SDS011;63509;45.250;38.102;2023-05-15T14:51:08;5.53;;;1.50;;
74945;SDS011;63509;45.250;38.102;2023-05-15T14:53:34;3.20;;;1.88;;
74945;SDS011;63509;45.250;38.102;2023-05-15T14:56:00;2.85;;;1.30;;
74945;SDS011;63509;45.250;38.102;2023-05-15T14:58:26;4.45;;;1.33;;
74945;SDS011;63509;45.250;38.102;2023-05-15T15:00:53;3.83;;;0.80;;
74945;SDS011;63509;45.250;38.102;2023-05-15T15:03:19;5.88;;;1.08;;
74945;SDS011;63509;45.250;38.102;2023-05-15T15:05:46;4.55;;;1.45;;
74945;SDS011;63509;45.250;38.102;2023-05-15T15:08:13;11.43;;;2.83;;
74945;SDS011;63509;45.250;38.102;2023-05-15T15:10:40;12.05;;;2.70;;
74945;SDS011;63509;45.250;38.102;2023-05-15T15:13:08;5.25;;;2.03;;
74945;SDS011;63509;45.250;38.102;2023-05-15T15:15:36;9.60;;;4.88;;
74945;SDS011;63509;45.250;38.102;2023-05-15T15:18:02;22.70;;;6.10;;
74945;SDS011;63509;45.250;38.102;2023-05-15T15:20:28;38.70;;;16.98;;
74945;SDS011;63509;45.250;38.102;2023-05-15T15:22:55;16.10;;;8.65;;
74945;SDS011;63509;45.250;38.102;2023-05-15T15:25:21;13.98;;;6.68;;
74945;SDS011;63509;45.250;38.102;2023-05-15T15:27:48;7.95;;;3.55;;
74945;SDS011;63509;45.250;38.102;2023-05-15T15:30:18;10.68;;;4.32;;
74945;SDS011;63509;45.250;38.102;2023-05-15T15:32:44;13.80;;;2.95;;
74945;SDS011;63509;45.250;38.102;2023-05-15T15:35:10;4.78;;;3.17;;
74945;SDS011;63509;45.250;38.102;2023-05-15T15:37:37;4.88;;;2.15;;
74945;SDS011;63509;45.250;38.102;2023-05-15T15:40:04;10.95;;;4.93;;